Acheral, Argentina
Current Conditions -  °F | °C
As of 7:00 AM on Monday 20 Oct 2014 (Local Time) from SANT Reporting Station
Smoke Smoke  
Wind Chill: 63°   Ceiling: 10000
Heat Index: 63°   Visibility: 2.5mi
Dew Point: 61°   Wind: 2mph
Humidity: 94%   Direction: 140°SE
Pressure: 30.15"   Gusts: NA
Location:  27.12°S, 65.45°W
Report Text: SANT 201000Z 14002KT 4000 BR FU SCT040OVC100 17/16 Q1021
Loading
Personal Weather Stations






























Interactive Weather Map
Tropical Storm Tracking
New forecast layout! Learn more

10-Day Weather Forecast

Advertisements
Track Severe Weather on mobile